Time;durP1;ratioP1;P1;durP2;ratioP2;P2;SDS_P1;SDS_P2;PMS_P1;PMS_P2;Temp;Humidity;BMP_temperature;BMP_pressure;BME280_temperature;BME280_humidity;BME280_pressure;Samples;Min_cycle;Max_cycle;Signal;HPM_P1;HPM_P2
2022/09/13 00:01:56;;;;;;;3.83;2.60;;;;;;;17.32;61.75;96821.72;4849647;28;20232;-78
2022/09/13 00:04:21;;;;;;;3.72;3.08;;;;;;;17.26;61.64;96809.75;4838321;28;20208;-79
2022/09/13 00:06:46;;;;;;;3.58;3.10;;;;;;;17.22;61.78;96811.41;4857485;28;20675;-78
2022/09/13 00:09:12;;;;;;;3.42;2.53;;;;;;;17.18;62.12;96807.81;4837047;28;20342;-78
2022/09/13 00:11:38;;;;;;;3.13;2.83;;;;;;;17.17;62.20;96799.16;4854898;29;20220;-79
2022/09/13 00:14:03;;;;;;;3.88;2.90;;;;;;;17.20;62.42;96797.78;4864813;28;20215;-78
2022/09/13 00:16:29;;;;;;;3.75;3.08;;;;;;;17.19;62.40;96790.97;4843086;28;20268;-78
2022/09/13 00:18:55;;;;;;;4.30;3.30;;;;;;;17.17;62.54;96785.19;4882336;28;20229;-78
2022/09/13 00:21:21;;;;;;;4.00;3.45;;;;;;;17.16;62.55;96794.94;4842370;29;20170;-78
2022/09/13 00:23:49;;;;;;;3.70;2.70;;;;;;;17.15;62.27;96788.16;4845437;28;20646;-79
2022/09/13 00:26:17;;;;;;;3.63;2.90;;;;;;;17.20;61.56;96789.88;4863527;28;20207;-78
2022/09/13 00:28:44;;;;;;;3.10;2.80;;;;;;;17.24;61.94;96790.84;4827666;28;20200;-78
2022/09/13 00:31:10;;;;;;;3.38;3.08;;;;;;;17.23;61.95;96792.69;4864315;28;20770;-79
2022/09/13 00:33:35;;;;;;;3.30;2.53;;;;;;;17.26;62.02;96793.97;4887866;28;20363;-79
2022/09/13 00:36:10;;;;;;;5.55;2.90;;;;;;;17.03;62.30;96796.56;4873501;28;20265;-78
2022/09/13 00:38:39;;;;;;;6.95;3.42;;;;;;;17.02;63.25;96789.72;4873607;28;20277;-79
2022/09/13 00:41:10;;;;;;;5.82;3.20;;;;;;;17.09;62.81;96788.56;4872911;28;20211;-79
2022/09/13 00:43:44;;;;;;;3.38;3.08;;;;;;;16.97;62.81;96784.56;4869717;28;20176;-78
2022/09/13 00:46:28;;;;;;;3.25;2.95;;;;;;;16.92;62.50;96791.78;4871421;28;20658;-78
2022/09/13 00:49:00;;;;;;;3.75;2.95;;;;;;;17.16;61.33;96800.22;4887340;28;20291;-78
2022/09/13 00:51:26;;;;;;;4.43;2.58;;;;;;;17.24;61.35;96801.38;4854537;28;20196;-78
2022/09/13 00:53:52;;;;;;;3.58;2.78;;;;;;;17.11;61.43;96795.06;4860180;28;20215;-78
2022/09/13 00:56:42;;;;;;;4.00;3.58;;;;;;;16.88;62.52;96803.97;4888001;28;20219;-79
2022/09/13 00:59:45;;;;;;;3.53;3.05;;;;;;;16.63;63.52;96803.38;4870747;28;20188;-78
2022/09/13 01:02:10;;;;;;;3.50;3.20;;;;;;;16.86;62.67;96804.25;4850780;29;20256;-77
2022/09/13 01:04:36;;;;;;;3.90;3.10;;;;;;;16.92;62.22;96808.34;4850525;28;20173;-78
2022/09/13 01:07:07;;;;;;;3.45;2.45;;;;;;;16.86;62.03;96814.75;4834415;28;20265;-78
2022/09/13 01:09:35;;;;;;;3.88;2.53;;;;;;;16.95;61.46;96826.16;4857317;28;20205;-78
2022/09/13 01:12:11;;;;;;;4.75;2.70;;;;;;;16.79;61.42;96819.63;4841120;29;20038;-78
2022/09/13 01:14:36;;;;;;;3.40;3.05;;;;;;;16.72;63.07;96821.88;4854165;28;20647;-78
2022/09/13 01:17:03;;;;;;;3.25;2.95;;;;;;;16.60;62.73;96811.84;4886836;28;20197;-78
2022/09/13 01:19:28;;;;;;;3.95;2.60;;;;;;;16.55;62.48;96796.94;4883174;28;20227;-78
2022/09/13 01:22:27;;;;;;;4.50;3.42;;;;;;;16.32;62.89;96797.91;4860422;28;20224;-77
2022/09/13 01:24:59;;;;;;;3.22;2.92;;;;;;;16.34;62.49;96807.03;4863454;28;20208;-77
2022/09/13 01:27:31;;;;;;;2.78;2.50;;;;;;;16.29;62.85;96802.66;4861047;28;20219;-78
2022/09/13 01:30:17;;;;;;;4.13;3.00;;;;;;;16.16;63.28;96790.28;4875858;28;20139;-78
2022/09/13 01:32:52;;;;;;;3.50;3.05;;;;;;;16.14;63.48;96794.25;4861951;28;20281;-78
2022/09/13 01:36:03;;;;;;;2.97;2.67;;;;;;;16.33;62.80;96809.97;4886470;28;20368;-78
2022/09/13 01:38:42;;;;;;;3.90;2.92;;;;;;;16.39;62.48;96819.31;4852664;28;20297;-78
2022/09/13 01:41:46;;;;;;;3.42;2.97;;;;;;;16.52;62.49;96813.31;4851394;29;20726;-78
2022/09/13 01:44:28;;;;;;;3.08;2.78;;;;;;;16.37;62.76;96818.84;4828115;29;20222;-77
2022/09/13 01:47:24;;;;;;;4.40;3.05;;;;;;;16.24;63.33;96822.97;4789406;29;20192;-78
2022/09/13 01:49:58;;;;;;;3.65;3.08;;;;;;;16.27;63.78;96820.56;4792331;29;20208;-77
2022/09/13 01:52:56;;;;;;;4.03;3.00;;;;;;;16.01;63.94;96814.19;4820352;29;20223;-78
2022/09/13 01:55:40;;;;;;;2.78;2.50;;;;;;;16.24;63.46;96813.25;4821884;29;20234;-78
2022/09/13 01:58:23;;;;;;;4.55;3.00;;;;;;;16.07;63.72;96805.16;4812370;29;20172;-78
2022/09/13 02:01:27;;;;;;;5.35;2.95;;;;;;;15.94;64.15;96814.56;4781879;29;20650;-78
2022/09/13 02:04:09;;;;;;;4.32;2.90;;;;;;;16.09;63.88;96818.75;4793165;29;20292;-78
2022/09/13 02:06:44;;;;;;;3.33;3.00;;;;;;;16.01;63.80;96819.44;4797188;29;20185;-77
2022/09/13 02:09:15;;;;;;;3.50;2.70;;;;;;;16.06;64.03;96829.88;4811405;29;20204;-78
2022/09/13 02:11:44;;;;;;;3.60;3.15;;;;;;;16.02;64.26;96842.00;4799721;29;20190;-78
2022/09/13 02:14:14;;;;;;;4.43;3.40;;;;;;;15.98;64.64;96846.28;4792705;28;20294;-78
2022/09/13 02:16:57;;;;;;;5.47;3.33;;;;;;;15.83;64.75;96823.66;4872966;28;20204;-78
2022/09/13 02:19:30;;;;;;;3.30;3.00;;;;;;;16.01;64.03;96819.44;4874232;28;20622;-78
2022/09/13 02:21:58;;;;;;;3.53;3.00;;;;;;;16.06;63.76;96816.72;4839092;29;20255;-78
2022/09/13 02:24:27;;;;;;;3.80;2.90;;;;;;;16.00;63.67;96816.00;4854860;28;20248;-78
2022/09/13 02:26:54;;;;;;;3.50;2.60;;;;;;;16.01;63.77;96806.31;4864915;29;20276;-78
2022/09/13 02:29:22;;;;;;;3.15;2.72;;;;;;;16.05;63.76;96820.41;4838494;28;20251;-77
2022/09/13 02:32:15;;;;;;;3.50;3.20;;;;;;;15.87;64.00;96825.44;4837991;29;20611;-77
2022/09/13 02:34:44;;;;;;;4.28;2.92;;;;;;;16.05;63.37;96823.03;4864837;28;20238;-78
2022/09/13 02:37:10;;;;;;;3.50;3.20;;;;;;;16.07;64.38;96818.28;4839355;28;20332;-78
2022/09/13 02:39:43;;;;;;;3.72;3.28;;;;;;;15.98;65.06;96812.13;4862520;28;20164;-78
2022/09/13 02:42:29;;;;;;;3.53;3.20;;;;;;;16.01;65.19;96816.81;4835559;28;20251;-78
2022/09/13 02:44:58;;;;;;;4.57;2.85;;;;;;;16.19;64.62;96805.44;4852171;28;20415;-78
2022/09/13 02:47:38;;;;;;;4.15;3.20;;;;;;;16.10;64.86;96786.19;4840157;28;20191;-78
2022/09/13 02:50:22;;;;;;;4.65;3.10;;;;;;;16.15;64.58;96783.47;4856730;28;20200;-78
2022/09/13 02:53:02;;;;;;;3.35;3.03;;;;;;;16.17;64.75;96783.19;4863710;28;20248;-77
2022/09/13 02:55:44;;;;;;;3.33;3.03;;;;;;;16.26;64.05;96784.88;4864113;28;20204;-78
2022/09/13 02:58:17;;;;;;;3.70;3.22;;;;;;;16.44;63.70;96790.31;4868335;28;20280;-78
2022/09/13 03:00:42;;;;;;;3.15;2.85;;;;;;;16.42;63.60;96789.84;4850138;29;20321;-78
2022/09/13 03:03:10;;;;;;;3.17;2.88;;;;;;;16.44;64.20;96790.31;4852835;29;20227;-78
2022/09/13 03:05:35;;;;;;;3.47;2.90;;;;;;;16.50;64.27;96783.88;4867405;29;20706;-77
2022/09/13 03:08:01;;;;;;;3.78;2.90;;;;;;;16.61;63.80;96795.78;4878020;28;20334;-78
2022/09/13 03:10:31;;;;;;;3.80;2.60;;;;;;;16.54;63.69;96805.91;4872685;28;20287;-78
2022/09/13 03:13:29;;;;;;;5.13;2.88;;;;;;;16.40;64.55;96791.97;4871583;28;20366;-78
2022/09/13 03:16:07;;;;;;;6.43;3.80;;;;;;;16.32;64.70;96790.03;4847926;29;20210;-78
2022/09/13 03:18:51;;;;;;;3.60;3.10;;;;;;;16.29;64.92;96786.88;4839360;28;20715;-78
2022/09/13 03:21:30;;;;;;;4.38;3.28;;;;;;;16.35;64.27;96787.59;4851368;29;20187;-78
2022/09/13 03:24:17;;;;;;;3.35;3.00;;;;;;;16.27;64.51;96791.66;4844251;28;20627;-78
2022/09/13 03:26:57;;;;;;;4.47;3.22;;;;;;;16.37;64.50;96779.41;4852289;28;20710;-78
2022/09/13 03:29:32;;;;;;;5.05;3.28;;;;;;;16.35;64.48;96782.34;4862251;29;20308;-78
2022/09/13 03:32:26;;;;;;;4.00;2.80;;;;;;;16.25;64.71;96782.53;4860698;28;20313;-78
2022/09/13 03:35:25;;;;;;;4.53;3.42;;;;;;;16.28;64.44;96780.09;4837832;29;20197;-78
2022/09/13 03:38:14;;;;;;;3.97;3.28;;;;;;;16.23;64.38;96776.78;4856135;28;20169;-79
2022/09/13 03:40:48;;;;;;;3.83;2.88;;;;;;;16.28;64.30;96769.59;4872217;28;20636;-78
2022/09/13 03:43:24;;;;;;;3.30;3.00;;;;;;;16.25;64.61;96772.78;4852564;29;20500;-78
2022/09/13 03:45:54;;;;;;;4.70;3.05;;;;;;;16.27;64.44;96773.28;4847959;28;20190;-77
2022/09/13 03:48:21;;;;;;;4.10;3.35;;;;;;;16.27;64.95;96768.00;4850818;28;20224;-77
2022/09/13 03:50:48;;;;;;;4.95;3.38;;;;;;;16.24;65.32;96758.09;4852880;28;20244;-78
2022/09/13 03:53:22;;;;;;;3.55;3.25;;;;;;;16.29;64.95;96762.47;4854668;28;20592;-78
2022/09/13 03:55:47;;;;;;;4.70;2.97;;;;;;;16.55;64.41;96754.88;4853833;29;20580;-77
2022/09/13 03:58:16;;;;;;;4.28;3.35;;;;;;;16.47;64.92;96743.22;4853763;28;20170;-78
2022/09/13 04:00:41;;;;;;;6.50;3.33;;;;;;;16.59;64.60;96747.97;4868037;29;20173;-78
2022/09/13 04:03:08;;;;;;;5.55;2.83;;;;;;;16.77;63.92;96740.25;4853470;29;20204;-78
2022/09/13 04:05:34;;;;;;;4.13;2.60;;;;;;;16.90;62.72;96742.13;4852676;29;20640;-78
2022/09/13 04:08:00;;;;;;;2.90;2.60;;;;;;;16.82;62.26;96743.56;4857318;28;20282;-78
2022/09/13 04:10:27;;;;;;;4.03;2.75;;;;;;;16.77;62.33;96748.16;4847342;29;20308;-78
2022/09/13 04:12:53;;;;;;;2.92;2.58;;;;;;;16.69;62.64;96754.09;4838447;28;20686;-78
2022/09/13 04:15:19;;;;;;;3.40;2.85;;;;;;;16.71;62.43;96752.75;4857211;28;20207;-78
2022/09/13 04:17:44;;;;;;;3.67;2.42;;;;;;;16.76;62.39;96757.91;4854902;28;20242;-78
2022/09/13 04:20:10;;;;;;;3.03;2.72;;;;;;;16.78;62.33;96752.34;4861127;29;20197;-78
2022/09/13 04:22:35;;;;;;;5.07;2.80;;;;;;;16.75;62.59;96748.44;4852830;28;20704;-78
2022/09/13 04:25:01;;;;;;;3.60;2.88;;;;;;;16.67;62.65;96752.56;4857396;28;20164;-78
2022/09/13 04:27:26;;;;;;;4.03;3.08;;;;;;;16.58;62.56;96756.94;4864379;28;20207;-78
2022/09/13 04:29:51;;;;;;;4.03;2.90;;;;;;;16.50;63.03;96762.09;4849413;29;20205;-77
2022/09/13 04:32:17;;;;;;;3.53;2.97;;;;;;;16.44;63.05;96774.56;4840204;28;20529;-78
2022/09/13 04:34:43;;;;;;;4.25;2.83;;;;;;;16.47;63.23;96773.97;4861138;28;20220;-78
2022/09/13 04:37:08;;;;;;;3.88;2.92;;;;;;;16.41;63.95;96768.03;4842120;29;20710;-78
2022/09/13 04:39:33;;;;;;;3.50;3.20;;;;;;;16.45;63.70;96766.38;4856851;28;20196;-78
2022/09/13 04:41:59;;;;;;;3.38;2.80;;;;;;;16.56;63.61;96772.22;4853894;28;20207;-78
2022/09/13 04:44:24;;;;;;;3.97;2.60;;;;;;;16.62;63.33;96765.78;4837627;28;20287;-77
2022/09/13 04:46:49;;;;;;;3.42;3.10;;;;;;;16.63;63.09;96772.59;4871378;28;20188;-78
2022/09/13 04:49:16;;;;;;;3.38;2.53;;;;;;;16.57;63.29;96781.66;4839536;29;20667;-78
2022/09/13 04:51:42;;;;;;;3.13;2.83;;;;;;;16.57;63.22;96784.28;4857041;28;20196;-78
2022/09/13 04:54:09;;;;;;;3.83;2.72;;;;;;;16.60;62.84;96790.81;4862646;28;20211;-78
2022/09/13 04:56:34;;;;;;;4.88;2.78;;;;;;;16.66;62.77;96802.78;4861169;28;20196;-78
2022/09/13 04:59:00;;;;;;;2.95;2.60;;;;;;;16.64;63.05;96794.41;4870737;28;20201;-78
2022/09/13 05:01:25;;;;;;;4.68;3.22;;;;;;;16.55;63.82;96799.56;4841384;28;20319;-78
2022/09/13 05:03:54;;;;;;;2.88;2.58;;;;;;;16.50;64.05;96797.03;4857335;28;20227;-78
2022/09/13 05:06:20;;;;;;;4.30;2.85;;;;;;;16.51;64.05;96795.19;4858228;28;20247;-78
2022/09/13 05:08:54;;;;;;;2.88;2.58;;;;;;;16.51;63.78;96789.94;4831354;28;20300;-77
2022/09/13 05:11:21;;;;;;;3.58;2.47;;;;;;;16.66;62.96;96800.16;4856205;28;20361;-78
2022/09/13 05:13:56;;;;;;;4.45;2.65;;;;;;;16.40;63.01;96795.38;4853972;29;20319;-78
2022/09/13 05:16:22;;;;;;;;;;;;;;;16.23;63.23;96798.56;4871974;28;20686;-79
2022/09/13 05:18:50;;;;;;;3.22;2.83;;;;;;;16.48;62.72;96792.09;4861712;28;20208;-78
2022/09/13 05:21:16;;;;;;;3.22;2.60;;;;;;;16.40;63.48;96789.31;4850700;29;20256;-78
2022/09/13 05:23:41;;;;;;;3.55;2.45;;;;;;;16.38;63.58;96781.75;4847682;29;20309;-77
2022/09/13 05:26:07;;;;;;;5.22;3.30;;;;;;;16.33;63.46;96773.97;4843522;29;20710;-78
2022/09/13 05:28:34;;;;;;;3.20;2.58;;;;;;;16.34;63.13;96785.25;4825885;29;20211;-78
2022/09/13 05:31:05;;;;;;;2.92;2.67;;;;;;;16.24;63.17;96799.34;4851545;29;20236;-79
2022/09/13 05:33:33;;;;;;;3.35;2.70;;;;;;;16.33;63.00;96800.25;4856006;29;20157;-79
2022/09/13 05:35:58;;;;;;;2.85;2.40;;;;;;;16.31;63.23;96812.88;4846881;29;20401;-78
2022/09/13 05:38:24;;;;;;;3.65;2.90;;;;;;;16.28;63.86;96808.22;4852772;28;20337;-78
2022/09/13 05:41:07;;;;;;;2.60;2.40;;;;;;;16.14;64.53;96805.53;4890700;28;20325;-78
2022/09/13 05:43:34;;;;;;;3.47;2.78;;;;;;;16.37;64.05;96801.22;4864152;29;20214;-78
2022/09/13 05:46:01;;;;;;;3.38;2.50;;;;;;;16.43;64.60;96800.06;4851074;29;20327;-77
2022/09/13 05:48:28;;;;;;;3.00;2.70;;;;;;;16.58;64.47;96796.34;4828787;29;20293;-78
2022/09/13 05:50:53;;;;;;;4.13;2.90;;;;;;;16.76;64.29;96786.00;4858038;29;20212;-78
2022/09/13 05:53:19;;;;;;;3.15;2.80;;;;;;;16.75;64.28;96787.88;4837927;28;20131;-77
2022/09/13 05:55:44;;;;;;;3.38;3.08;;;;;;;16.79;64.17;96782.81;4853281;29;20569;-78
2022/09/13 05:58:10;;;;;;;3.58;2.75;;;;;;;16.82;63.96;96787.47;4838795;29;20723;-78
2022/09/13 06:00:35;;;;;;;3.97;2.85;;;;;;;16.86;63.54;96791.09;4822758;28;20665;-78
2022/09/13 06:03:00;;;;;;;5.00;2.97;;;;;;;16.84;63.55;96793.25;4840348;28;20299;-78
2022/09/13 06:05:26;;;;;;;5.22;2.67;;;;;;;16.84;63.54;96794.06;4873050;28;20316;-78
2022/09/13 06:07:51;;;;;;;3.03;2.35;;;;;;;16.84;63.38;96790.63;4853573;29;20675;-78
2022/09/13 06:10:17;;;;;;;4.35;2.72;;;;;;;16.93;63.64;96791.50;4849470;28;20617;-77
2022/09/13 06:12:42;;;;;;;3.70;2.67;;;;;;;16.93;64.08;96786.25;4838874;29;20271;-78
2022/09/13 06:15:08;;;;;;;3.20;2.65;;;;;;;17.06;64.84;96779.38;4853739;29;20193;-78
2022/09/13 06:17:33;;;;;;;4.30;2.53;;;;;;;17.21;64.31;96775.66;4839100;29;20208;-78
2022/09/13 06:19:58;;;;;;;5.43;3.03;;;;;;;17.36;64.49;96772.69;4848213;28;20599;-78
2022/09/13 06:22:24;;;;;;;4.32;2.38;;;;;;;17.49;64.13;96775.56;4869947;28;20343;-78
2022/09/13 06:24:49;;;;;;;3.20;2.90;;;;;;;17.54;63.56;96773.56;4860342;28;20207;-78
2022/09/13 06:27:14;;;;;;;3.97;2.90;;;;;;;17.56;63.46;96766.19;4852752;29;20189;-78
2022/09/13 06:29:40;;;;;;;4.32;2.83;;;;;;;17.61;63.50;96757.38;4854013;29;20174;-78
2022/09/13 06:32:05;;;;;;;3.50;2.78;;;;;;;17.64;63.46;96762.03;4822643;28;20212;-78
2022/09/13 06:34:31;;;;;;;3.22;2.58;;;;;;;17.69;62.69;96769.06;4854940;29;20218;-78
2022/09/13 06:36:56;;;;;;;2.78;2.55;;;;;;;17.67;62.65;96763.31;4847215;28;20188;-78
2022/09/13 06:39:22;;;;;;;4.78;2.50;;;;;;;17.68;62.74;96778.00;4870098;28;20204;-78
2022/09/13 06:41:47;;;;;;;4.72;3.17;;;;;;;17.67;63.02;96787.78;4867859;28;20229;-78
2022/09/13 06:44:13;;;;;;;3.72;2.60;;;;;;;17.81;62.44;96787.72;4845629;28;20134;-78
2022/09/13 06:46:38;;;;;;;3.20;2.70;;;;;;;17.94;62.25;96784.25;4835652;28;20276;-78
2022/09/13 06:49:05;;;;;;;3.65;2.50;;;;;;;17.94;63.82;96775.56;4837215;29;20515;-78
2022/09/13 06:51:31;;;;;;;3.03;2.70;;;;;;;18.03;63.84;96778.28;4858868;29;20284;-78
2022/09/13 06:53:57;;;;;;;3.67;2.42;;;;;;;18.09;63.77;96779.69;4852169;28;20303;-79
2022/09/13 06:56:28;;;;;;;3.67;3.28;;;;;;;18.04;64.34;96787.72;4850443;29;20727;-78
2022/09/13 06:58:56;;;;;;;3.25;2.88;;;;;;;18.13;63.32;96786.69;4875082;28;20635;-78
2022/09/13 07:01:24;;;;;;;2.88;2.67;;;;;;;18.27;63.13;96791.09;4846919;29;20340;-78
2022/09/13 07:03:51;;;;;;;3.00;2.53;;;;;;;18.36;61.92;96788.50;4841263;29;20209;-78
2022/09/13 07:06:22;;;;;;;4.30;3.38;;;;;;;18.30;62.00;96782.56;4844457;29;20197;-78
2022/09/13 07:08:50;;;;;;;3.22;2.70;;;;;;;18.42;62.93;96779.34;4846063;28;20185;-78
2022/09/13 07:11:17;;;;;;;4.07;2.70;;;;;;;18.49;63.15;96775.22;4864834;28;20256;-78
2022/09/13 07:13:56;;;;;;;4.22;2.65;;;;;;;18.48;62.95;96778.91;4831787;28;20195;-78
2022/09/13 07:16:24;;;;;;;3.42;2.72;;;;;;;18.63;62.81;96772.44;4858763;28;20307;-78
2022/09/13 07:18:55;;;;;;;3.63;2.50;;;;;;;18.68;62.94;96776.81;4848178;29;20804;-78
2022/09/13 07:21:21;;;;;;;3.65;3.10;;;;;;;18.86;63.61;96772.38;4859951;29;20344;-78
2022/09/13 07:23:46;;;;;;;4.57;4.13;;;;;;;18.96;64.02;96773.94;4856290;28;20343;-78
2022/09/13 07:26:11;;;;;;;3.40;3.10;;;;;;;18.89;62.84;96769.91;4864420;28;20228;-78
2022/09/13 07:28:40;;;;;;;3.38;3.08;;;;;;;19.03;62.45;96755.78;4853129;28;20178;-78
2022/09/13 07:31:13;;;;;;;3.45;2.97;;;;;;;19.07;62.03;96762.78;4846471;28;20201;-79
2022/09/13 07:33:40;;;;;;;4.68;2.72;;;;;;;19.28;61.40;96770.88;4852132;29;20289;-78
2022/09/13 07:36:06;;;;;;;4.57;3.05;;;;;;;19.43;60.94;96777.56;4835028;28;20220;-78
2022/09/13 07:38:33;;;;;;;3.65;2.80;;;;;;;19.52;60.03;96777.53;4864709;28;20307;-78
2022/09/13 07:40:59;;;;;;;2.95;2.65;;;;;;;19.63;59.47;96773.47;4862352;28;20212;-78
2022/09/13 07:43:28;;;;;;;3.60;2.75;;;;;;;19.83;58.43;96777.38;4846406;29;20635;-78
2022/09/13 07:46:01;;;;;;;3.13;2.58;;;;;;;19.87;57.93;96777.50;4858389;29;20116;-78
2022/09/13 07:48:28;;;;;;;3.83;2.85;;;;;;;20.15;57.97;96777.13;4866660;28;20284;-78
2022/09/13 07:51:02;;;;;;;2.60;2.40;;;;;;;20.25;59.71;96782.06;4846202;28;20231;-78
2022/09/13 07:53:28;;;;;;;3.85;3.00;;;;;;;20.45;59.30;96788.53;4857017;29;20264;-78
2022/09/13 07:55:58;;;;;;;3.42;2.60;;;;;;;20.62;58.35;96795.66;4879383;28;20275;-79
2022/09/13 07:58:23;;;;;;;3.35;2.70;;;;;;;20.73;57.24;96788.13;4846403;29;20188;-78
2022/09/13 08:00:49;;;;;;;2.72;2.47;;;;;;;20.84;57.30;96780.59;4842669;29;20188;-78
2022/09/13 08:03:14;;;;;;;4.05;3.33;;;;;;;20.92;57.38;96777.09;4835107;29;20186;-78
2022/09/13 08:05:40;;;;;;;3.30;2.78;;;;;;;21.07;57.85;96781.06;4846985;28;20226;-79
2022/09/13 08:08:06;;;;;;;3.45;3.15;;;;;;;21.23;57.32;96776.75;4840373;29;20192;-78
2022/09/13 08:10:32;;;;;;;4.78;4.10;;;;;;;21.45;57.35;96783.56;4856158;28;20709;-78
2022/09/13 08:12:58;;;;;;;4.55;3.22;;;;;;;21.87;57.06;96774.81;4864355;29;20192;-78
2022/09/13 08:15:23;;;;;;;3.35;3.08;;;;;;;22.21;55.70;96778.97;4818694;29;20197;-79
2022/09/13 08:17:49;;;;;;;3.15;2.83;;;;;;;22.37;55.71;96778.34;4850755;29;20608;-79
2022/09/13 08:20:14;;;;;;;3.08;2.75;;;;;;;22.52;55.48;96788.31;4865268;28;20265;-78
2022/09/13 08:22:40;;;;;;;2.83;2.63;;;;;;;22.57;55.73;96795.28;4865330;29;20690;-79
2022/09/13 08:25:05;;;;;;;3.03;2.83;;;;;;;22.65;56.08;96798.91;4841348;28;20213;-78
2022/09/13 08:27:31;;;;;;;3.00;2.75;;;;;;;22.66;55.43;96800.47;4842316;29;20283;-79
2022/09/13 08:29:56;;;;;;;3.17;2.78;;;;;;;22.77;56.51;96801.56;4853154;28;20252;-78
2022/09/13 08:32:21;;;;;;;3.75;2.88;;;;;;;22.88;55.93;96800.00;4836065;28;20284;-79
2022/09/13 08:34:47;;;;;;;4.20;2.63;;;;;;;22.98;56.41;96801.44;4835065;29;20287;-79
2022/09/13 08:37:12;;;;;;;3.53;2.60;;;;;;;23.12;55.95;96785.94;4849373;28;20283;-79
2022/09/13 08:39:37;;;;;;;3.42;2.78;;;;;;;23.33;55.36;96780.47;4882179;28;20682;-78
2022/09/13 08:42:17;;;;;;;3.17;2.80;;;;;;;23.54;54.75;96776.84;4848652;28;20206;-78
2022/09/13 08:44:46;;;;;;;3.45;2.78;;;;;;;23.78;54.03;96769.88;4842853;28;20289;-78
2022/09/13 08:47:33;;;;;;;3.20;2.90;;;;;;;23.71;53.05;96775.78;4853773;29;20290;-79
2022/09/13 08:50:30;;;;;;;2.55;2.35;;;;;;;23.99;52.54;96781.09;4842928;29;20209;-79
2022/09/13 08:53:00;;;;;;;2.95;2.65;;;;;;;24.29;51.60;96778.00;4873861;28;20413;-79
2022/09/13 08:55:39;;;;;;;2.58;2.30;;;;;;;24.55;51.27;96787.38;4834056;28;20200;-78
2022/09/13 08:58:48;;;;;;;2.50;2.30;;;;;;;24.70;50.35;96815.88;4868951;28;20216;-79
2022/09/13 09:01:22;;;;;;;2.90;2.60;;;;;;;24.94;49.60;96822.13;4867595;28;20208;-78
2022/09/13 09:03:57;;;;;;;3.28;2.95;;;;;;;25.11;50.20;96837.72;4855481;28;20841;-78
2022/09/13 09:06:23;;;;;;;2.60;2.40;;;;;;;25.21;49.13;96823.09;4864248;28;20200;-79
2022/09/13 09:08:51;;;;;;;2.53;2.33;;;;;;;25.17;48.63;96820.34;4865128;29;20185;-78
2022/09/13 09:11:27;;;;;;;2.65;2.45;;;;;;;25.07;49.16;96817.44;4850644;28;20301;-78
2022/09/13 09:13:58;;;;;;;2.13;1.90;;;;;;;25.14;48.94;96804.25;4883932;28;20243;-79
2022/09/13 09:16:29;;;;;;;2.20;2.00;;;;;;;25.23;49.02;96808.28;4847303;28;20197;-79
2022/09/13 09:18:57;;;;;;;2.22;1.95;;;;;;;25.35;48.72;96817.31;4849785;29;20216;-79
2022/09/13 09:21:23;;;;;;;2.50;2.22;;;;;;;25.37;47.95;96820.38;4844330;28;20256;-79
2022/09/13 09:23:50;;;;;;;2.00;1.90;;;;;;;25.41;47.97;96806.03;4843220;28;20271;-79
2022/09/13 09:26:28;;;;;;;2.60;2.17;;;;;;;25.35;47.14;96803.97;4847491;29;20279;-79
2022/09/13 09:29:11;;;;;;;2.17;1.98;;;;;;;25.42;47.77;96806.78;4850554;28;20301;-79
2022/09/13 09:32:14;;;;;;;2.10;1.90;;;;;;;25.34;46.90;96811.19;4880631;28;20683;-79
2022/09/13 09:34:50;;;;;;;2.55;2.00;;;;;;;25.40;46.29;96803.69;4869716;28;20212;-78
2022/09/13 09:37:27;;;;;;;1.85;1.75;;;;;;;25.35;47.05;96790.66;4853477;28;20698;-79
2022/09/13 09:39:54;;;;;;;2.40;2.17;;;;;;;25.46;46.35;96785.53;4856094;28;20205;-79
2022/09/13 09:42:24;;;;;;;3.17;2.40;;;;;;;25.28;48.91;96790.53;4855617;29;20217;-78
2022/09/13 09:44:52;;;;;;;2.50;2.30;;;;;;;25.37;49.22;96799.81;4828124;29;20643;-78
2022/09/13 09:47:21;;;;;;;3.38;3.13;;;;;;;25.51;49.27;96826.00;4856728;28;20285;-79
2022/09/13 09:50:09;;;;;;;2.35;2.05;;;;;;;25.55;46.95;96832.19;4868823;28;20247;-79
2022/09/13 09:52:44;;;;;;;2.67;1.73;;;;;;;25.67;46.13;96846.47;4856391;28;20367;-78
2022/09/13 09:55:19;;;;;;;2.25;1.80;;;;;;;25.81;46.64;96854.78;4855293;28;20191;-78
2022/09/13 09:57:50;;;;;;;2.33;1.92;;;;;;;25.94;46.71;96852.72;4873316;29;20718;-79
2022/09/13 10:00:16;;;;;;;1.80;1.70;;;;;;;26.02;46.56;96851.00;4852428;28;20265;-78
2022/09/13 10:02:46;;;;;;;1.75;1.65;;;;;;;25.89;45.80;96856.47;4837972;28;20268;-79
2022/09/13 10:05:12;;;;;;;2.20;2.10;;;;;;;25.95;44.17;96848.97;4863032;29;20208;-78
2022/09/13 10:07:37;;;;;;;1.80;1.70;;;;;;;26.00;43.31;96850.59;4852500;29;20280;-78
2022/09/13 10:10:22;;;;;;;1.70;1.60;;;;;;;25.87;43.43;96845.34;4842939;28;20191;-79
2022/09/13 10:12:54;;;;;;;1.70;1.60;;;;;;;25.87;42.85;96842.69;4870541;28;20501;-79
2022/09/13 10:15:31;;;;;;;1.60;1.50;;;;;;;25.84;42.25;96838.06;4840110;28;20917;-78
2022/09/13 10:18:17;;;;;;;1.65;1.52;;;;;;;25.82;42.47;96839.53;4853084;29;20157;-78
2022/09/13 10:21:01;;;;;;;2.17;1.77;;;;;;;25.86;42.49;96841.16;4851145;29;20170;-78
2022/09/13 10:23:27;;;;;;;1.95;1.77;;;;;;;26.10;41.41;96850.00;4853960;28;20347;-78
2022/09/13 10:26:03;;;;;;;1.98;1.75;;;;;;;25.88;41.92;96836.22;4864790;29;20362;-79
2022/09/13 10:28:30;;;;;;;1.60;1.50;;;;;;;26.00;42.68;96834.56;4830579;29;20662;-79
2022/09/13 10:31:10;;;;;;;1.70;1.55;;;;;;;26.02;43.67;96835.00;4867553;28;20227;-79
2022/09/13 10:33:38;;;;;;;1.90;1.80;;;;;;;26.02;44.52;96817.06;4841791;28;20208;-79
2022/09/13 10:36:20;;;;;;;1.77;1.48;;;;;;;26.07;44.58;96816.03;4871409;28;20248;-79
2022/09/13 10:38:58;;;;;;;2.80;1.98;;;;;;;26.07;44.67;96834.69;4865706;28;20642;-79
2022/09/13 10:41:26;;;;;;;2.20;1.55;;;;;;;26.16;45.12;96832.56;4887231;28;20221;-78
2022/09/13 10:43:59;;;;;;;1.50;1.40;;;;;;;26.10;45.87;96823.31;4866839;29;20453;-79
2022/09/13 10:46:26;;;;;;;2.92;2.20;;;;;;;26.17;45.75;96823.44;4835762;29;20213;-79
2022/09/13 10:48:54;;;;;;;2.45;2.03;;;;;;;26.19;45.84;96831.84;4851995;28;20261;-78
2022/09/13 10:51:26;;;;;;;2.15;1.80;;;;;;;26.14;46.53;96826.81;4872387;28;20211;-78
2022/09/13 10:54:22;;;;;;;2.22;2.03;;;;;;;26.02;46.67;96824.31;4872784;28;20314;-78
2022/09/13 10:56:47;;;;;;;2.17;2.05;;;;;;;26.19;46.94;96831.84;4859863;29;20283;-78
2022/09/13 10:59:19;;;;;;;2.75;2.53;;;;;;;26.28;46.89;96824.38;4857884;28;20304;-79
2022/09/13 11:01:58;;;;;;;2.30;2.10;;;;;;;26.39;47.45;96829.91;4864777;28;20283;-78
2022/09/13 11:04:26;;;;;;;2.30;2.03;;;;;;;26.68;45.91;96811.69;4826163;29;20728;-79
2022/09/13 11:07:18;;;;;;;3.38;2.30;;;;;;;26.94;45.96;96805.59;4855651;28;20288;-79
2022/09/13 11:10:01;;;;;;;1.95;1.85;;;;;;;27.00;44.95;96804.13;4845105;28;20667;-79
2022/09/13 11:13:06;;;;;;;2.65;2.10;;;;;;;26.82;44.50;96803.88;4835529;28;20173;-78
2022/09/13 11:15:40;;;;;;;2.17;1.90;;;;;;;27.13;44.23;96801.22;4832730;29;20666;-77
2022/09/13 11:18:27;;;;;;;2.55;2.22;;;;;;;27.42;44.09;96792.47;4859278;28;20212;-78
2022/09/13 11:20:53;;;;;;;2.90;2.20;;;;;;;28.13;43.83;96786.31;4839737;29;20288;-78
2022/09/13 11:23:25;;;;;;;2.33;2.13;;;;;;;28.30;42.87;96789.53;4844648;28;20270;-78
2022/09/13 11:25:53;;;;;;;2.20;2.08;;;;;;;29.06;39.01;96790.81;4870478;28;20413;-78
2022/09/13 11:28:31;;;;;;;2.00;1.90;;;;;;;29.39;38.61;96786.38;4857609;29;20270;-78
2022/09/13 11:31:20;;;;;;;2.00;1.90;;;;;;;28.98;38.85;96773.94;4868448;28;20206;-78
2022/09/13 11:34:14;;;;;;;1.40;1.30;;;;;;;28.64;38.39;96776.03;4867536;28;20198;-79
2022/09/13 11:36:56;;;;;;;1.95;1.73;;;;;;;28.84;38.08;96766.59;4853758;29;20219;-79
2022/09/13 11:39:31;;;;;;;1.63;1.52;;;;;;;28.80;36.94;96775.75;4827878;28;20300;-78
2022/09/13 11:42:16;;;;;;;1.20;1.10;;;;;;;28.76;38.65;96770.38;4867778;28;20279;-78
2022/09/13 11:45:16;;;;;;;1.50;1.40;;;;;;;28.48;38.75;96771.69;4835027;28;20275;-78
2022/09/13 11:48:04;;;;;;;1.88;1.70;;;;;;;28.43;38.77;96772.03;4850975;29;20196;-79
2022/09/13 11:50:58;;;;;;;2.30;2.00;;;;;;;28.04;38.46;96767.13;4856921;28;20283;-79
2022/09/13 11:53:30;;;;;;;1.40;1.30;;;;;;;28.23;38.97;96762.72;4835764;28;20397;-79
2022/09/13 11:56:05;;;;;;;1.63;1.52;;;;;;;28.37;38.62;96757.44;4850390;29;20654;-79
2022/09/13 11:58:42;;;;;;;1.77;1.67;;;;;;;28.17;39.28;96752.34;4835430;29;20215;-78